sensor_id;sensor_type;location;lat;lon;timestamp;pressure;altitude;pressure_sealevel;temperature;humidity
48718;BME280;34521;33.042;-96.586;2023-05-29T00:02:02;99471.65;;;26.67;29.35
48718;BME280;34521;33.042;-96.586;2023-05-29T00:04:26;99473.50;;;26.23;29.15
48718;BME280;34521;33.042;-96.586;2023-05-29T00:06:51;99473.31;;;26.36;29.40
48718;BME280;34521;33.042;-96.586;2023-05-29T00:09:17;99476.61;;;26.47;29.23
48718;BME280;34521;33.042;-96.586;2023-05-29T00:11:42;99481.57;;;26.65;28.97
48718;BME280;34521;33.042;-96.586;2023-05-29T00:14:07;99490.59;;;26.90;28.80
48718;BME280;34521;33.042;-96.586;2023-05-29T00:16:32;99500.45;;;26.94;28.88
48718;BME280;34521;33.042;-96.586;2023-05-29T00:18:57;99510.79;;;27.33;28.84
48718;BME280;34521;33.042;-96.586;2023-05-29T00:21:22;99512.06;;;27.27;28.76
48718;BME280;34521;33.042;-96.586;2023-05-29T00:23:48;99514.02;;;26.39;29.63
48718;BME280;34521;33.042;-96.586;2023-05-29T00:26:12;99513.89;;;26.56;29.23
48718;BME280;34521;33.042;-96.586;2023-05-29T00:28:37;99514.99;;;26.19;28.84
48718;BME280;34521;33.042;-96.586;2023-05-29T00:31:02;99515.37;;;26.46;29.02
48718;BME280;34521;33.042;-96.586;2023-05-29T00:33:28;99514.60;;;26.46;28.91
48718;BME280;34521;33.042;-96.586;2023-05-29T00:35:52;99511.97;;;26.67;28.83
48718;BME280;34521;33.042;-96.586;2023-05-29T00:38:18;99507.73;;;26.91;28.67
48718;BME280;34521;33.042;-96.586;2023-05-29T00:40:43;99501.73;;;27.15;28.44
48718;BME280;34521;33.042;-96.586;2023-05-29T00:43:07;99503.23;;;27.11;28.59
48718;BME280;34521;33.042;-96.586;2023-05-29T00:45:33;99504.75;;;27.02;28.76
48718;BME280;34521;33.042;-96.586;2023-05-29T00:47:58;99507.99;;;27.01;28.85
48718;BME280;34521;33.042;-96.586;2023-05-29T00:50:23;99511.38;;;25.66;30.09
48718;BME280;34521;33.042;-96.586;2023-05-29T00:52:48;99516.01;;;26.60;28.88
48718;BME280;34521;33.042;-96.586;2023-05-29T00:55:14;99519.94;;;26.13;28.54
48718;BME280;34521;33.042;-96.586;2023-05-29T00:57:38;99524.08;;;26.20;28.20
48718;BME280;34521;33.042;-96.586;2023-05-29T01:00:04;99523.55;;;25.72;28.25
48718;BME280;34521;33.042;-96.586;2023-05-29T01:02:29;99520.91;;;25.57;27.92
48718;BME280;34521;33.042;-96.586;2023-05-29T01:04:53;99517.75;;;25.49;28.75
48718;BME280;34521;33.042;-96.586;2023-05-29T01:07:18;99515.66;;;26.28;27.90
48718;BME280;34521;33.042;-96.586;2023-05-29T01:09:43;99516.20;;;26.28;27.80
48718;BME280;34521;33.042;-96.586;2023-05-29T01:12:19;99512.46;;;26.71;27.43
48718;BME280;34521;33.042;-96.586;2023-05-29T01:14:40;99518.29;;;24.61;29.76
48718;BME280;34521;33.042;-96.586;2023-05-29T01:17:05;99519.25;;;25.20;28.80
48718;BME280;34521;33.042;-96.586;2023-05-29T01:19:40;99517.86;;;26.00;27.93
48718;BME280;34521;33.042;-96.586;2023-05-29T01:21:58;99515.12;;;25.69;27.70
48718;BME280;34521;33.042;-96.586;2023-05-29T01:24:20;99514.24;;;26.08;28.23
48718;BME280;34521;33.042;-96.586;2023-05-29T01:26:48;99517.49;;;26.10;27.95
48718;BME280;34521;33.042;-96.586;2023-05-29T01:29:07;99524.99;;;26.19;27.70
48718;BME280;34521;33.042;-96.586;2023-05-29T01:31:30;99525.36;;;26.82;27.40
48718;BME280;34521;33.042;-96.586;2023-05-29T01:33:56;99528.56;;;26.68;27.38
48718;BME280;34521;33.042;-96.586;2023-05-29T01:36:20;99533.76;;;25.54;28.84
48718;BME280;34521;33.042;-96.586;2023-05-29T01:38:45;99531.64;;;25.87;28.11
48718;BME280;34521;33.042;-96.586;2023-05-29T01:41:11;99532.15;;;25.64;27.90
48718;BME280;34521;33.042;-96.586;2023-05-29T01:43:36;99534.01;;;25.83;28.20
48718;BME280;34521;33.042;-96.586;2023-05-29T01:46:01;99535.45;;;25.95;27.83
48718;BME280;34521;33.042;-96.586;2023-05-29T01:48:28;99532.64;;;26.47;27.62
48718;BME280;34521;33.042;-96.586;2023-05-29T01:50:51;99533.71;;;26.53;27.46
48718;BME280;34521;33.042;-96.586;2023-05-29T01:53:16;99537.41;;;26.75;27.28
48718;BME280;34521;33.042;-96.586;2023-05-29T01:55:41;99538.37;;;25.19;29.04
48718;BME280;34521;33.042;-96.586;2023-05-29T01:58:07;99546.20;;;25.51;28.10
48718;BME280;34521;33.042;-96.586;2023-05-29T02:00:31;99554.30;;;25.69;27.78
48718;BME280;34521;33.042;-96.586;2023-05-29T02:02:56;99553.04;;;25.08;28.44
48718;BME280;34521;33.042;-96.586;2023-05-29T02:05:21;99557.20;;;25.88;27.94
48718;BME280;34521;33.042;-96.586;2023-05-29T02:07:46;99553.16;;;26.15;27.74
48718;BME280;34521;33.042;-96.586;2023-05-29T02:10:11;99558.52;;;25.62;28.84
48718;BME280;34521;33.042;-96.586;2023-05-29T02:12:36;99558.79;;;25.30;29.11
48718;BME280;34521;33.042;-96.586;2023-05-29T02:15:01;99557.58;;;25.74;28.97
48718;BME280;34521;33.042;-96.586;2023-05-29T02:17:26;99562.77;;;26.30;27.84
48718;BME280;34521;33.042;-96.586;2023-05-29T02:19:51;99567.10;;;25.81;27.87
48718;BME280;34521;33.042;-96.586;2023-05-29T02:22:18;99570.30;;;26.14;27.33
48718;BME280;34521;33.042;-96.586;2023-05-29T02:24:42;99576.84;;;25.51;28.10
48718;BME280;34521;33.042;-96.586;2023-05-29T02:27:07;99590.33;;;24.71;28.92
48718;BME280;34521;33.042;-96.586;2023-05-29T02:29:32;99591.66;;;25.06;29.25
48718;BME280;34521;33.042;-96.586;2023-05-29T02:31:57;99591.36;;;24.64;29.78
48718;BME280;34521;33.042;-96.586;2023-05-29T02:34:22;99584.19;;;25.61;28.46
48718;BME280;34521;33.042;-96.586;2023-05-29T02:36:47;99586.75;;;24.59;29.92
48718;BME280;34521;33.042;-96.586;2023-05-29T02:39:12;99579.46;;;24.93;28.38
48718;BME280;34521;33.042;-96.586;2023-05-29T02:41:37;99571.22;;;25.42;27.97
48718;BME280;34521;33.042;-96.586;2023-05-29T02:44:02;99570.15;;;25.86;27.96
48718;BME280;34521;33.042;-96.586;2023-05-29T02:46:27;99567.63;;;25.67;27.89
48718;BME280;34521;33.042;-96.586;2023-05-29T02:48:52;99570.24;;;25.72;27.78
48718;BME280;34521;33.042;-96.586;2023-05-29T02:51:17;99571.10;;;26.14;27.57
48718;BME280;34521;33.042;-96.586;2023-05-29T02:53:43;99567.67;;;26.21;27.35
48718;BME280;34521;33.042;-96.586;2023-05-29T02:56:08;99570.00;;;26.12;27.52
48718;BME280;34521;33.042;-96.586;2023-05-29T02:58:33;99571.81;;;24.36;29.40
48718;BME280;34521;33.042;-96.586;2023-05-29T03:00:57;99569.55;;;25.15;27.99
48718;BME280;34521;33.042;-96.586;2023-05-29T03:03:23;99567.60;;;25.32;27.39
48718;BME280;34521;33.042;-96.586;2023-05-29T03:05:47;99570.05;;;25.73;27.77
48718;BME280;34521;33.042;-96.586;2023-05-29T03:08:13;99572.28;;;25.84;27.63
48718;BME280;34521;33.042;-96.586;2023-05-29T03:10:37;99571.32;;;25.94;27.39
48718;BME280;34521;33.042;-96.586;2023-05-29T03:13:03;99568.16;;;25.86;27.25
48718;BME280;34521;33.042;-96.586;2023-05-29T03:15:27;99570.73;;;26.30;27.17
48718;BME280;34521;33.042;-96.586;2023-05-29T03:17:53;99572.87;;;26.27;27.30
48718;BME280;34521;33.042;-96.586;2023-05-29T03:20:18;99577.90;;;26.05;27.34
48718;BME280;34521;33.042;-96.586;2023-05-29T03:22:43;99583.75;;;24.79;28.53
48718;BME280;34521;33.042;-96.586;2023-05-29T03:25:09;99581.34;;;25.40;27.52
48718;BME280;34521;33.042;-96.586;2023-05-29T03:27:33;99579.17;;;25.41;27.63
48718;BME280;34521;33.042;-96.586;2023-05-29T03:29:59;99579.87;;;25.57;27.69
48718;BME280;34521;33.042;-96.586;2023-05-29T03:32:23;99575.44;;;25.63;27.49
48718;BME280;34521;33.042;-96.586;2023-05-29T03:34:48;99574.53;;;25.96;27.28
48718;BME280;34521;33.042;-96.586;2023-05-29T03:37:13;99574.86;;;25.87;27.18
48718;BME280;34521;33.042;-96.586;2023-05-29T03:39:38;99576.87;;;26.00;27.35
48718;BME280;34521;33.042;-96.586;2023-05-29T03:42:04;99574.79;;;26.30;27.15
48718;BME280;34521;33.042;-96.586;2023-05-29T03:44:28;99568.84;;;26.14;27.38
48718;BME280;34521;33.042;-96.586;2023-05-29T03:46:54;99566.14;;;25.06;28.49
48718;BME280;34521;33.042;-96.586;2023-05-29T03:49:19;99560.35;;;25.46;27.68
48718;BME280;34521;33.042;-96.586;2023-05-29T03:51:44;99559.24;;;25.54;27.20
48718;BME280;34521;33.042;-96.586;2023-05-29T03:54:09;99561.26;;;25.37;27.85
48718;BME280;34521;33.042;-96.586;2023-05-29T03:56:34;99559.29;;;25.67;27.56
48718;BME280;34521;33.042;-96.586;2023-05-29T03:58:59;99564.16;;;25.90;27.43
48718;BME280;34521;33.042;-96.586;2023-05-29T04:01:24;99566.63;;;25.82;27.38
48718;BME280;34521;33.042;-96.586;2023-05-29T04:03:49;99566.77;;;26.29;27.22
48718;BME280;34521;33.042;-96.586;2023-05-29T04:06:14;99567.43;;;26.42;27.15
48718;BME280;34521;33.042;-96.586;2023-05-29T04:08:39;99567.60;;;26.18;27.26
48718;BME280;34521;33.042;-96.586;2023-05-29T04:11:04;99564.56;;;26.25;27.27
48718;BME280;34521;33.042;-96.586;2023-05-29T04:13:29;99567.66;;;24.76;28.49
48718;BME280;34521;33.042;-96.586;2023-05-29T04:15:54;99568.35;;;24.88;28.16
48718;BME280;34521;33.042;-96.586;2023-05-29T04:18:20;99566.42;;;25.39;27.32
48718;BME280;34521;33.042;-96.586;2023-05-29T04:20:44;99572.39;;;25.35;27.93
48718;BME280;34521;33.042;-96.586;2023-05-29T04:23:09;99579.58;;;25.63;27.56
48718;BME280;34521;33.042;-96.586;2023-05-29T04:25:34;99576.94;;;25.73;27.41
48718;BME280;34521;33.042;-96.586;2023-05-29T04:28:00;99572.81;;;26.18;27.27
48718;BME280;34521;33.042;-96.586;2023-05-29T04:30:25;99569.82;;;26.00;27.28
48718;BME280;34521;33.042;-96.586;2023-05-29T04:32:50;99567.53;;;26.39;27.20
48718;BME280;34521;33.042;-96.586;2023-05-29T04:35:15;99562.13;;;26.05;27.34
48718;BME280;34521;33.042;-96.586;2023-05-29T04:37:40;99558.27;;;26.10;27.34
48718;BME280;34521;33.042;-96.586;2023-05-29T04:40:07;99554.56;;;26.21;27.33
48718;BME280;34521;33.042;-96.586;2023-05-29T04:42:30;99565.69;;;24.03;29.10
48718;BME280;34521;33.042;-96.586;2023-05-29T04:44:55;99558.14;;;25.21;27.78
48718;BME280;34521;33.042;-96.586;2023-05-29T04:47:20;99561.72;;;25.25;27.44
48718;BME280;34521;33.042;-96.586;2023-05-29T04:49:46;99562.59;;;25.47;27.81
48718;BME280;34521;33.042;-96.586;2023-05-29T04:52:11;99562.45;;;25.69;27.57
48718;BME280;34521;33.042;-96.586;2023-05-29T04:54:36;99565.54;;;25.71;27.46
48718;BME280;34521;33.042;-96.586;2023-05-29T04:57:01;99565.15;;;25.78;27.43
48718;BME280;34521;33.042;-96.586;2023-05-29T04:59:26;99569.81;;;26.20;27.31
48718;BME280;34521;33.042;-96.586;2023-05-29T05:01:51;99563.39;;;26.27;27.28
48718;BME280;34521;33.042;-96.586;2023-05-29T05:04:16;99559.72;;;26.12;27.29
48718;BME280;34521;33.042;-96.586;2023-05-29T05:06:41;99553.57;;;26.20;27.30
48718;BME280;34521;33.042;-96.586;2023-05-29T05:09:06;99550.31;;;26.51;27.27
48718;BME280;34521;33.042;-96.586;2023-05-29T05:11:31;99558.52;;;26.25;27.37
48718;BME280;34521;33.042;-96.586;2023-05-29T05:13:56;99565.75;;;23.83;29.56
48718;BME280;34521;33.042;-96.586;2023-05-29T05:16:21;99563.50;;;25.01;28.11
48718;BME280;34521;33.042;-96.586;2023-05-29T05:18:46;99561.31;;;24.79;28.03
48718;BME280;34521;33.042;-96.586;2023-05-29T05:21:11;99549.40;;;25.22;28.07
48718;BME280;34521;33.042;-96.586;2023-05-29T05:23:36;99546.79;;;25.60;27.69
48718;BME280;34521;33.042;-96.586;2023-05-29T05:26:01;99552.07;;;25.92;27.48
48718;BME280;34521;33.042;-96.586;2023-05-29T05:28:27;99553.66;;;26.14;27.31
48718;BME280;34521;33.042;-96.586;2023-05-29T05:30:52;99548.58;;;26.05;27.19
48718;BME280;34521;33.042;-96.586;2023-05-29T05:33:17;99544.08;;;26.16;27.16
48718;BME280;34521;33.042;-96.586;2023-05-29T05:35:41;99546.09;;;26.14;27.27
48718;BME280;34521;33.042;-96.586;2023-05-29T05:38:07;99548.08;;;26.41;27.31
48718;BME280;34521;33.042;-96.586;2023-05-29T05:40:32;99547.26;;;26.13;27.19
48718;BME280;34521;33.042;-96.586;2023-05-29T05:42:57;99545.18;;;26.19;27.45
48718;BME280;34521;33.042;-96.586;2023-05-29T05:45:22;99546.47;;;26.29;27.38
48718;BME280;34521;33.042;-96.586;2023-05-29T05:47:47;99554.76;;;24.63;30.91
48718;BME280;34521;33.042;-96.586;2023-05-29T05:50:12;99557.42;;;23.20;31.68
48718;BME280;34521;33.042;-96.586;2023-05-29T05:52:37;99548.51;;;24.43;29.23
48718;BME280;34521;33.042;-96.586;2023-05-29T05:55:02;99542.50;;;25.40;28.98
48718;BME280;34521;33.042;-96.586;2023-05-29T05:57:27;99538.65;;;25.35;28.84
48718;BME280;34521;33.042;-96.586;2023-05-29T05:59:52;99532.45;;;25.73;28.47
48718;BME280;34521;33.042;-96.586;2023-05-29T06:02:17;99526.65;;;25.75;28.24
48718;BME280;34521;33.042;-96.586;2023-05-29T06:04:42;99518.01;;;26.14;28.11
48718;BME280;34521;33.042;-96.586;2023-05-29T06:07:07;99519.56;;;26.16;28.11
48718;BME280;34521;33.042;-96.586;2023-05-29T06:09:32;99521.06;;;26.05;28.03
48718;BME280;34521;33.042;-96.586;2023-05-29T06:11:57;99523.78;;;26.07;28.06
48718;BME280;34521;33.042;-96.586;2023-05-29T06:14:24;99525.48;;;26.21;27.96
48718;BME280;34521;33.042;-96.586;2023-05-29T06:16:47;99526.75;;;26.40;28.03
48718;BME280;34521;33.042;-96.586;2023-05-29T06:19:13;99530.02;;;26.47;27.96
48718;BME280;34521;33.042;-96.586;2023-05-29T06:21:38;99531.76;;;25.92;28.08
48718;BME280;34521;33.042;-96.586;2023-05-29T06:24:03;99532.59;;;26.08;28.17
48718;BME280;34521;33.042;-96.586;2023-05-29T06:26:28;99535.98;;;24.18;29.89
48718;BME280;34521;33.042;-96.586;2023-05-29T06:28:53;99534.43;;;25.29;28.18
48718;BME280;34521;33.042;-96.586;2023-05-29T06:31:18;99532.80;;;24.99;28.77
48718;BME280;34521;33.042;-96.586;2023-05-29T06:33:44;99532.44;;;25.39;28.30
48718;BME280;34521;33.042;-96.586;2023-05-29T06:36:09;99530.52;;;25.80;27.95
48718;BME280;34521;33.042;-96.586;2023-05-29T06:38:33;99532.31;;;26.06;27.51
48718;BME280;34521;33.042;-96.586;2023-05-29T06:40:58;99531.84;;;25.93;27.68
48718;BME280;34521;33.042;-96.586;2023-05-29T06:43:23;99533.96;;;26.13;27.79
48718;BME280;34521;33.042;-96.586;2023-05-29T06:45:48;99537.33;;;23.91;30.86
48718;BME280;34521;33.042;-96.586;2023-05-29T06:48:13;99537.16;;;23.60;33.04
48718;BME280;34521;33.042;-96.586;2023-05-29T06:50:38;99534.86;;;23.46;33.69
48718;BME280;34521;33.042;-96.586;2023-05-29T06:53:04;99525.58;;;25.22;31.30
48718;BME280;34521;33.042;-96.586;2023-05-29T06:55:29;99527.50;;;25.53;30.95
48718;BME280;34521;33.042;-96.586;2023-05-29T06:57:54;99518.98;;;25.97;30.39
48718;BME280;34521;33.042;-96.586;2023-05-29T07:00:19;99517.34;;;25.93;30.04
48718;BME280;34521;33.042;-96.586;2023-05-29T07:02:44;99518.37;;;26.15;29.67
48718;BME280;34521;33.042;-96.586;2023-05-29T07:05:09;99518.77;;;26.24;29.53
48718;BME280;34521;33.042;-96.586;2023-05-29T07:07:34;99520.14;;;26.16;29.32
48718;BME280;34521;33.042;-96.586;2023-05-29T07:09:59;99518.05;;;26.40;29.29
48718;BME280;34521;33.042;-96.586;2023-05-29T07:12:24;99519.50;;;23.01;32.33
48718;BME280;34521;33.042;-96.586;2023-05-29T07:14:49;99506.39;;;25.21;29.39
48718;BME280;34521;33.042;-96.586;2023-05-29T07:17:14;99506.12;;;25.47;29.11
48718;BME280;34521;33.042;-96.586;2023-05-29T07:19:39;99504.16;;;25.54;29.14
48718;BME280;34521;33.042;-96.586;2023-05-29T07:22:04;99503.75;;;25.75;28.99
48718;BME280;34521;33.042;-96.586;2023-05-29T07:24:29;99505.91;;;25.99;28.83
48718;BME280;34521;33.042;-96.586;2023-05-29T07:26:54;99500.77;;;26.25;28.62
48718;BME280;34521;33.042;-96.586;2023-05-29T07:29:19;99504.65;;;26.17;28.71
48718;BME280;34521;33.042;-96.586;2023-05-29T07:31:44;99507.67;;;25.97;28.73
48718;BME280;34521;33.042;-96.586;2023-05-29T07:34:09;99509.77;;;26.07;28.67
48718;BME280;34521;33.042;-96.586;2023-05-29T07:36:34;99513.31;;;26.13;28.67
48718;BME280;34521;33.042;-96.586;2023-05-29T07:38:59;99514.90;;;26.16;28.67
48718;BME280;34521;33.042;-96.586;2023-05-29T07:41:24;99519.83;;;26.35;28.53
48718;BME280;34521;33.042;-96.586;2023-05-29T07:43:49;99524.08;;;26.56;28.61
48718;BME280;34521;33.042;-96.586;2023-05-29T07:46:14;99530.62;;;24.42;31.91
48718;BME280;34521;33.042;-96.586;2023-05-29T07:48:39;99532.48;;;24.13;32.85
48718;BME280;34521;33.042;-96.586;2023-05-29T07:51:04;99534.34;;;24.21;33.78
48718;BME280;34521;33.042;-96.586;2023-05-29T07:53:29;99528.08;;;25.55;31.48
48718;BME280;34521;33.042;-96.586;2023-05-29T07:55:54;99524.14;;;25.42;31.11
48718;BME280;34521;33.042;-96.586;2023-05-29T07:58:19;99523.14;;;25.90;30.75
48718;BME280;34521;33.042;-96.586;2023-05-29T08:00:45;99525.69;;;25.90;30.82
48718;BME280;34521;33.042;-96.586;2023-05-29T08:03:09;99530.34;;;23.53;32.85
48718;BME280;34521;33.042;-96.586;2023-05-29T08:05:34;99528.71;;;24.54;30.18
48718;BME280;34521;33.042;-96.586;2023-05-29T08:08:00;99521.46;;;25.07;30.19
48718;BME280;34521;33.042;-96.586;2023-05-29T08:10:25;99522.59;;;25.67;29.74
48718;BME280;34521;33.042;-96.586;2023-05-29T08:12:49;99527.01;;;25.42;29.31
48718;BME280;34521;33.042;-96.586;2023-05-29T08:15:15;99526.16;;;25.99;28.98
48718;BME280;34521;33.042;-96.586;2023-05-29T08:17:40;99527.79;;;26.11;28.89
48718;BME280;34521;33.042;-96.586;2023-05-29T08:20:05;99526.81;;;25.92;28.90
48718;BME280;34521;33.042;-96.586;2023-05-29T08:22:30;99522.25;;;26.05;28.82
48718;BME280;34521;33.042;-96.586;2023-05-29T08:24:55;99519.15;;;26.07;28.86
48718;BME280;34521;33.042;-96.586;2023-05-29T08:27:20;99516.41;;;26.10;28.89
48718;BME280;34521;33.042;-96.586;2023-05-29T08:29:45;99512.02;;;26.11;28.94
48718;BME280;34521;33.042;-96.586;2023-05-29T08:32:10;99513.40;;;25.93;28.92
48718;BME280;34521;33.042;-96.586;2023-05-29T08:34:35;99513.49;;;26.41;28.69
48718;BME280;34521;33.042;-96.586;2023-05-29T08:37:00;99506.26;;;26.14;28.73
48718;BME280;34521;33.042;-96.586;2023-05-29T08:39:26;99503.61;;;26.37;28.79
48718;BME280;34521;33.042;-96.586;2023-05-29T08:41:57;99502.75;;;26.47;28.71
48718;BME280;34521;33.042;-96.586;2023-05-29T08:44:17;99505.83;;;23.99;32.93
48718;BME280;34521;33.042;-96.586;2023-05-29T08:46:41;99503.20;;;23.70;33.59
48718;BME280;34521;33.042;-96.586;2023-05-29T08:49:06;99494.35;;;23.30;32.56
48718;BME280;34521;33.042;-96.586;2023-05-29T08:51:32;99488.32;;;24.64;30.63
48718;BME280;34521;33.042;-96.586;2023-05-29T08:53:56;99483.41;;;25.13;30.09
48718;BME280;34521;33.042;-96.586;2023-05-29T08:56:21;99482.48;;;25.68;29.62
48718;BME280;34521;33.042;-96.586;2023-05-29T08:58:46;99486.33;;;25.61;29.50
48718;BME280;34521;33.042;-96.586;2023-05-29T09:01:11;99491.23;;;26.06;29.29
48718;BME280;34521;33.042;-96.586;2023-05-29T09:03:36;99495.41;;;25.86;29.30
48718;BME280;34521;33.042;-96.586;2023-05-29T09:06:01;99497.01;;;26.26;29.16
48718;BME280;34521;33.042;-96.586;2023-05-29T09:08:26;99498.66;;;26.24;29.21
48718;BME280;34521;33.042;-96.586;2023-05-29T09:10:51;99500.60;;;26.03;29.20
48718;BME280;34521;33.042;-96.586;2023-05-29T09:13:16;99499.83;;;26.16;29.10
48718;BME280;34521;33.042;-96.586;2023-05-29T09:15:41;99499.79;;;26.51;29.02
48718;BME280;34521;33.042;-96.586;2023-05-29T09:18:06;99496.57;;;26.22;29.11
48718;BME280;34521;33.042;-96.586;2023-05-29T09:20:31;99494.92;;;26.51;29.10
48718;BME280;34521;33.042;-96.586;2023-05-29T09:22:57;99499.01;;;26.54;29.08
48718;BME280;34521;33.042;-96.586;2023-05-29T09:25:23;99496.70;;;26.55;29.09
48718;BME280;34521;33.042;-96.586;2023-05-29T09:27:46;99491.77;;;26.45;28.94
48718;BME280;34521;33.042;-96.586;2023-05-29T09:30:13;99495.92;;;23.64;31.32
48718;BME280;34521;33.042;-96.586;2023-05-29T09:32:36;99498.63;;;22.94;32.13
48718;BME280;34521;33.042;-96.586;2023-05-29T09:35:01;99498.33;;;24.93;29.89
48718;BME280;34521;33.042;-96.586;2023-05-29T09:37:26;99492.30;;;25.10;29.44
48718;BME280;34521;33.042;-96.586;2023-05-29T09:39:52;99488.20;;;25.52;29.05
48718;BME280;34521;33.042;-96.586;2023-05-29T09:42:17;99488.67;;;25.73;28.89
48718;BME280;34521;33.042;-96.586;2023-05-29T09:44:42;99497.12;;;23.56;33.07
48718;BME280;34521;33.042;-96.586;2023-05-29T09:47:06;99504.73;;;23.12;34.81
48718;BME280;34521;33.042;-96.586;2023-05-29T09:49:32;99498.13;;;25.35;32.09
48718;BME280;34521;33.042;-96.586;2023-05-29T09:51:57;99496.93;;;25.44;31.32
48718;BME280;34521;33.042;-96.586;2023-05-29T09:54:22;99493.26;;;25.63;31.11
48718;BME280;34521;33.042;-96.586;2023-05-29T09:56:48;99492.99;;;25.86;30.78
48718;BME280;34521;33.042;-96.586;2023-05-29T09:59:14;99495.87;;;25.92;30.63
48718;BME280;34521;33.042;-96.586;2023-05-29T10:01:40;99499.57;;;25.92;30.29
48718;BME280;34521;33.042;-96.586;2023-05-29T10:04:03;99500.88;;;26.05;29.84
48718;BME280;34521;33.042;-96.586;2023-05-29T10:06:28;99503.33;;;26.04;30.04
48718;BME280;34521;33.042;-96.586;2023-05-29T10:08:53;99508.58;;;26.54;29.81
48718;BME280;34521;33.042;-96.586;2023-05-29T10:11:20;99509.35;;;26.53;29.75
48718;BME280;34521;33.042;-96.586;2023-05-29T10:13:43;99510.51;;;26.41;29.61
48718;BME280;34521;33.042;-96.586;2023-05-29T10:16:10;99510.34;;;26.65;29.36
48718;BME280;34521;33.042;-96.586;2023-05-29T10:18:37;99510.28;;;26.71;29.53
48718;BME280;34521;33.042;-96.586;2023-05-29T10:20:58;99510.54;;;26.37;29.82
48718;BME280;34521;33.042;-96.586;2023-05-29T10:23:24;99508.35;;;26.25;29.72
48718;BME280;34521;33.042;-96.586;2023-05-29T10:25:51;99506.10;;;26.31;29.62
48718;BME280;34521;33.042;-96.586;2023-05-29T10:28:13;99504.88;;;26.64;29.23
48718;BME280;34521;33.042;-96.586;2023-05-29T10:30:41;99511.30;;;22.83;33.12
48718;BME280;34521;33.042;-96.586;2023-05-29T10:33:20;99506.56;;;24.20;30.52
48718;BME280;34521;33.042;-96.586;2023-05-29T10:35:36;99504.40;;;25.06;29.86
48718;BME280;34521;33.042;-96.586;2023-05-29T10:37:56;99503.81;;;25.13;29.88
48718;BME280;34521;33.042;-96.586;2023-05-29T10:40:23;99497.85;;;25.74;29.24
48718;BME280;34521;33.042;-96.586;2023-05-29T10:42:44;99509.95;;;23.65;32.35
48718;BME280;34521;33.042;-96.586;2023-05-29T10:45:09;99505.54;;;22.44;35.27
48718;BME280;34521;33.042;-96.586;2023-05-29T10:47:33;99504.44;;;23.10;35.44
48718;BME280;34521;33.042;-96.586;2023-05-29T10:50:00;99495.98;;;25.26;31.88
48718;BME280;34521;33.042;-96.586;2023-05-29T10:52:23;99495.30;;;25.72;31.63
48718;BME280;34521;33.042;-96.586;2023-05-29T10:54:53;99497.14;;;25.55;31.27
48718;BME280;34521;33.042;-96.586;2023-05-29T10:57:13;99498.99;;;25.99;30.70
48718;BME280;34521;33.042;-96.586;2023-05-29T10:59:38;99503.32;;;25.94;30.71
48718;BME280;34521;33.042;-96.586;2023-05-29T11:02:04;99500.00;;;26.29;30.29
48718;BME280;34521;33.042;-96.586;2023-05-29T11:04:29;99501.44;;;25.95;30.40
48718;BME280;34521;33.042;-96.586;2023-05-29T11:06:53;99505.08;;;26.14;30.14
48718;BME280;34521;33.042;-96.586;2023-05-29T11:09:27;99507.47;;;26.38;30.12
48718;BME280;34521;33.042;-96.586;2023-05-29T11:11:43;99503.83;;;26.22;29.99
48718;BME280;34521;33.042;-96.586;2023-05-29T11:14:08;99505.02;;;26.61;29.79
48718;BME280;34521;33.042;-96.586;2023-05-29T11:16:38;99503.79;;;26.52;29.90
48718;BME280;34521;33.042;-96.586;2023-05-29T11:19:03;99502.98;;;26.22;29.93
48718;BME280;34521;33.042;-96.586;2023-05-29T11:21:30;99502.22;;;26.75;29.59
48718;BME280;34521;33.042;-96.586;2023-05-29T11:23:51;99503.57;;;26.25;29.89
48718;BME280;34521;33.042;-96.586;2023-05-29T11:26:14;99508.27;;;22.78;32.73
48718;BME280;34521;33.042;-96.586;2023-05-29T11:28:39;99509.72;;;24.77;30.20
48718;BME280;34521;33.042;-96.586;2023-05-29T11:31:08;99510.26;;;25.33;30.02
48718;BME280;34521;33.042;-96.586;2023-05-29T11:33:29;99519.95;;;25.44;29.76
48718;BME280;34521;33.042;-96.586;2023-05-29T11:35:57;99521.32;;;25.69;29.53
48718;BME280;34521;33.042;-96.586;2023-05-29T11:38:19;99524.56;;;25.78;29.47
48718;BME280;34521;33.042;-96.586;2023-05-29T11:40:44;99535.51;;;23.14;33.73
48718;BME280;34521;33.042;-96.586;2023-05-29T11:43:09;99533.76;;;22.57;35.99
48718;BME280;34521;33.042;-96.586;2023-05-29T11:45:34;99537.70;;;23.29;35.39
48718;BME280;34521;33.042;-96.586;2023-05-29T11:48:00;99533.38;;;25.30;32.45
48718;BME280;34521;33.042;-96.586;2023-05-29T11:50:26;99528.33;;;25.73;31.81
48718;BME280;34521;33.042;-96.586;2023-05-29T11:52:49;99524.94;;;25.58;31.70
48718;BME280;34521;33.042;-96.586;2023-05-29T11:55:14;99526.08;;;25.90;31.63
48718;BME280;34521;33.042;-96.586;2023-05-29T11:57:39;99524.29;;;25.95;31.21
48718;BME280;34521;33.042;-96.586;2023-05-29T12:00:06;99528.23;;;26.38;30.65
48718;BME280;34521;33.042;-96.586;2023-05-29T12:02:31;99527.32;;;26.05;30.67
48718;BME280;34521;33.042;-96.586;2023-05-29T12:05:01;99529.30;;;26.34;30.54
48718;BME280;34521;33.042;-96.586;2023-05-29T12:07:20;99533.02;;;26.40;30.43
48718;BME280;34521;33.042;-96.586;2023-05-29T12:09:45;99541.47;;;26.42;30.36
48718;BME280;34521;33.042;-96.586;2023-05-29T12:12:10;99545.15;;;26.52;30.20
48718;BME280;34521;33.042;-96.586;2023-05-29T12:14:35;99547.82;;;26.50;30.20
48718;BME280;34521;33.042;-96.586;2023-05-29T12:17:00;99549.04;;;26.35;30.02
48718;BME280;34521;33.042;-96.586;2023-05-29T12:19:25;99554.67;;;26.51;30.12
48718;BME280;34521;33.042;-96.586;2023-05-29T12:21:50;99560.07;;;25.62;30.47
48718;BME280;34521;33.042;-96.586;2023-05-29T12:24:16;99567.51;;;22.44;33.74
48718;BME280;34521;33.042;-96.586;2023-05-29T12:26:41;99568.52;;;24.10;32.20
48718;BME280;34521;33.042;-96.586;2023-05-29T12:29:05;99568.85;;;24.94;30.98